Time;durP1;ratioP1;P1;durP2;ratioP2;P2;SDS_P1;SDS_P2;PMS_P1;PMS_P2;Temp;Humidity;BMP_temperature;BMP_pressure;BME280_temperature;BME280_humidity;BME280_pressure;Samples;Min_cycle;Max_cycle;Signal;HPM_P1;HPM_P2
2022/05/14 00:02:04;;;;;;;;;;;;;;;16.31;100.00;151751.41;1735460;82;21205;-57
2022/05/14 00:04:31;;;;;;;;;;;;;;;16.28;100.00;151744.91;1735272;82;20405;-58
2022/05/14 00:06:58;;;;;;;;;;;;;;;16.28;100.00;151744.91;1735505;82;20473;-57
2022/05/14 00:09:25;;;;;;;;;;;;;;;16.24;100.00;151734.45;1735475;82;20140;-58
2022/05/14 00:14:38;;;;;;;;;;;;;;;16.20;100.00;151724.03;1758922;81;21131;-58
2022/05/14 00:17:05;;;;;;;;;;;;;;;16.17;100.00;151716.22;1759314;81;20212;-58
2022/05/14 00:19:32;;;;;;;;;;;;;;;16.16;100.00;151713.62;1759023;81;20182;-57
2022/05/14 00:21:59;;;;;;;;;;;;;;;16.13;100.00;151705.81;1759024;81;20229;-58
2022/05/14 00:24:26;;;;;;;;;;;;;;;16.09;100.00;151695.41;1759149;81;20166;-58
2022/05/14 00:26:53;;;;;;;;;;;;;;;16.10;100.00;151698.02;1758997;81;21276;-57
2022/05/14 00:29:19;;;;;;;;;;;;;;;16.08;100.00;151692.81;1759257;81;20174;-58
2022/05/14 00:31:47;;;;;;;;;;;;;;;16.07;100.00;151690.19;1758921;81;20178;-58
2022/05/14 00:34:15;;;;;;;;;;;;;;;16.04;100.00;151683.66;1759272;81;20126;-58
2022/05/14 00:36:43;;;;;;;;;;;;;;;16.03;100.00;151681.06;1758787;81;20445;-58
2022/05/14 00:39:10;;;;;;;;;;;;;;;16.03;100.00;151681.06;1755395;81;21840;-58
2022/05/14 00:41:37;;;;;;;;;;;;;;;16.01;100.00;151677.13;1750775;82;20317;-58
2022/05/14 00:44:05;;;;;;;;;;;;;;;16.04;100.00;151685.00;1751134;82;20196;-60
2022/05/14 00:46:41;;;;;;;;;;;;;;;16.06;100.00;151688.88;1751428;82;20086;-59
2022/05/14 00:49:08;;;;;;;;;;;;;;;16.04;100.00;151685.00;1742034;82;20229;-58
2022/05/14 00:51:37;;;;;;;;;;;;;;;16.03;100.00;151682.39;1750777;82;20530;-58
2022/05/14 00:54:06;;;;;;;;;;;;;;;16.03;100.00;151681.06;1751069;82;20474;-58
2022/05/14 00:56:37;;;;;;;;;;;;;;;16.02;100.00;151679.73;1751346;82;20553;-58
2022/05/14 00:59:13;;;;;;;;;;;;;;;16.00;100.00;151673.25;1751252;82;20177;-57
2022/05/14 01:01:40;;;;;;;;;;;;;;;16.00;100.00;151673.25;1750981;82;20422;-59
2022/05/14 01:04:07;;;;;;;;;;;;;;;16.00;100.00;151674.53;1751070;82;21244;-58
2022/05/14 01:06:36;;;;;;;;;;;;;;;15.99;100.00;151671.92;1751303;82;20174;-58
2022/05/14 01:09:04;;;;;;;;;;;;;;;15.98;100.00;151669.33;1751060;82;20134;-57
2022/05/14 01:11:34;;;;;;;;;;;;;;;15.99;100.00;151671.92;1741885;82;20216;-57
2022/05/14 01:14:01;;;;;;;;;;;;;;;16.03;100.00;151681.06;1726579;83;20181;-58
2022/05/14 01:16:30;;;;;;;;;;;;;;;16.08;100.00;151694.08;1726584;83;21148;-58
2022/05/14 01:18:56;;;;;;;;;;;;;;;16.08;100.00;151694.08;1726371;83;20172;-58
2022/05/14 01:21:31;;;;;;;;;;;;;;;16.14;100.00;151708.42;1726566;83;20447;-58
2022/05/14 01:26:59;;;;;;;;;;;;;;;16.17;100.00;151716.22;1726181;83;20148;-59
2022/05/14 01:29:26;;;;;;;;;;;;;;;16.18;100.00;151720.16;1726624;83;21273;-59
2022/05/14 01:31:56;;;;;;;;;;;;;;;16.16;100.00;151713.62;1725647;83;20208;-58
2022/05/14 01:34:28;;;;;;;;;;;;;;;16.16;100.00;151713.62;1726647;83;20145;-58
2022/05/14 01:36:55;;;;;;;;;;;;;;;16.15;100.00;151711.03;1693273;83;20204;-57
2022/05/14 01:39:22;;;;;;;;;;;;;;;16.16;100.00;151713.62;1721546;83;20173;-58
2022/05/14 01:41:49;;;;;;;;;;;;;;;16.15;100.00;151711.03;1715745;83;21944;-57
2022/05/14 01:44:17;;;;;;;;;;;;;;;16.11;100.00;151701.89;1716456;83;20415;-57
2022/05/14 01:46:44;;;;;;;;;;;;;;;16.13;100.00;151705.81;1715760;83;20209;-58
2022/05/14 01:49:11;;;;;;;;;;;;;;;16.18;100.00;151718.84;1716084;83;20465;-58
2022/05/14 01:51:38;;;;;;;;;;;;;;;16.23;100.00;151730.58;1715816;83;20533;-58
2022/05/14 01:54:07;;;;;;;;;;;;;;;16.24;100.00;151734.45;1716126;83;21286;-59
2022/05/14 01:56:35;;;;;;;;;;;;;;;16.27;100.00;151742.31;1707665;83;20422;-57
2022/05/14 01:59:01;;;;;;;;;;;;;;;16.33;100.00;151757.94;1716025;83;20458;-59
2022/05/14 02:01:30;;;;;;;;;;;;;;;16.36;100.00;151763.14;1716147;83;20717;-58
2022/05/14 02:04:06;;;;;;;;;;;;;;;16.34;100.00;151759.22;1716102;83;20206;-58
2022/05/14 02:06:34;;;;;;;;;;;;;;;16.36;100.00;151764.47;1715636;83;21321;-58
2022/05/14 02:09:01;;;;;;;;;;;;;;;16.36;100.00;151763.14;1716333;83;20432;-59
2022/05/14 02:11:29;;;;;;;;;;;;;;;16.34;100.00;151759.22;1716947;83;20121;-58
2022/05/14 02:13:57;;;;;;;;;;;;;;;16.35;100.00;151760.53;1716365;83;20157;-58
2022/05/14 02:16:24;;;;;;;;;;;;;;;16.36;100.00;151763.14;1717188;83;20374;-58
2022/05/14 02:18:51;;;;;;;;;;;;;;;16.31;100.00;151751.41;1716910;83;21190;-58
2022/05/14 02:21:24;;;;;;;;;;;;;;;16.25;100.00;151737.11;1717228;83;20394;-58
2022/05/14 02:23:50;;;;;;;;;;;;;;;16.25;100.00;151735.78;1716973;83;20127;-59
2022/05/14 02:26:17;;;;;;;;;;;;;;;16.25;100.00;151735.78;1717398;83;20105;-59
2022/05/14 02:28:44;;;;;;;;;;;;;;;16.27;100.00;151742.31;1716725;83;20180;-58
2022/05/14 02:31:11;;;;;;;;;;;;;;;16.25;100.00;151737.11;1717085;83;21267;-58
2022/05/14 02:33:38;;;;;;;;;;;;;;;16.20;100.00;151724.03;1716900;83;20208;-58
2022/05/14 02:36:10;;;;;;;;;;;;;;;16.15;100.00;151711.03;1717175;83;20753;-59
2022/05/14 02:38:38;;;;;;;;;;;;;;;16.12;100.00;151703.22;1716767;83;20563;-58
2022/05/14 02:41:05;;;;;;;;;;;;;;;16.13;100.00;151705.81;1716919;83;20205;-58
2022/05/14 02:43:33;;;;;;;;;;;;;;;16.13;100.00;151705.81;1716820;83;21247;-59
2022/05/14 02:46:02;;;;;;;;;;;;;;;16.09;100.00;151695.41;1717311;83;20292;-58
2022/05/14 02:48:31;;;;;;;;;;;;;;;16.06;100.00;151687.59;1717494;83;20124;-58
2022/05/14 02:50:58;;;;;;;;;;;;;;;16.02;100.00;151679.73;1716905;83;20465;-58
2022/05/14 02:53:25;;;;;;;;;;;;;;;16.02;100.00;151679.73;1716828;83;20145;-59
2022/05/14 02:55:52;;;;;;;;;;;;;;;16.09;100.00;151695.41;1716601;83;21087;-58
2022/05/14 03:01:06;;;;;;;;;;;;;;;16.13;100.00;151707.09;1716775;83;20488;-58
2022/05/14 03:03:33;;;;;;;;;;;;;;;16.14;100.00;151708.42;1716613;83;20105;-58
2022/05/14 03:06:01;;;;;;;;;;;;;;;16.11;100.00;151700.61;1716656;83;20255;-59
2022/05/14 03:08:28;;;;;;;;;;;;;;;16.11;100.00;151700.61;1716798;83;20918;-59
2022/05/14 03:10:55;;;;;;;;;;;;;;;16.10;100.00;151698.02;1716349;83;20458;-59
2022/05/14 03:13:22;;;;;;;;;;;;;;;16.10;100.00;151698.02;1717258;83;20169;-59
2022/05/14 03:15:49;;;;;;;;;;;;;;;16.10;100.00;151699.28;1716357;83;20553;-59
2022/05/14 03:18:16;;;;;;;;;;;;;;;16.14;100.00;151709.75;1717230;83;20146;-59
2022/05/14 03:20:43;;;;;;;;;;;;;;;16.22;100.00;151729.25;1716848;83;21239;-57
2022/05/14 03:23:10;;;;;;;;;;;;;;;16.28;100.00;151743.59;1717183;83;20706;-60
2022/05/14 03:25:37;;;;;;;;;;;;;;;16.33;100.00;151756.61;1717234;83;20623;-59
2022/05/14 03:28:05;;;;;;;;;;;;;;;16.40;100.00;151773.55;1716640;83;20136;-59
2022/05/14 03:30:32;;;;;;;;;;;;;;;16.45;100.00;151787.91;1717121;83;20134;-60
2022/05/14 03:32:59;;;;;;;;;;;;;;;16.57;100.00;151817.88;1717251;83;21222;-59
2022/05/14 03:35:26;;;;;;;;;;;;;;;16.65;100.00;151836.09;1717278;83;20157;-58
2022/05/14 03:37:54;;;;;;;;;;;;;;;16.78;100.00;151870.00;1717145;83;20201;-58
2022/05/14 03:40:20;;;;;;;;;;;;;;;16.89;100.00;151898.66;1715788;82;20446;-57
2022/05/14 03:42:47;;;;;;;;;;;;;;;17.00;100.00;151924.80;1713748;83;20478;-58
2022/05/14 03:45:14;;;;;;;;;;;;;;;17.13;100.00;151958.70;1714025;83;21302;-58
2022/05/14 03:47:41;;;;;;;;;;;;;;;17.21;100.00;151976.94;1713735;83;20472;-59
2022/05/14 03:50:09;;;;;;;;;;;;;;;17.23;100.00;151982.16;1714139;83;20212;-59
2022/05/14 03:52:36;;;;;;;;;;;;;;;17.23;100.00;151982.16;1714239;83;20394;-59
2022/05/14 03:55:03;;;;;;;;;;;;;;;17.12;100.00;151956.05;1714060;83;20169;-57
2022/05/14 03:57:30;;;;;;;;;;;;;;;17.05;100.00;151937.81;1714208;83;21138;-58
2022/05/14 03:59:58;;;;;;;;;;;;;;;17.02;100.00;151930.00;1713924;83;20176;-59
2022/05/14 04:02:25;;;;;;;;;;;;;;;17.01;100.00;151927.41;1714155;83;20142;-59
2022/05/14 04:04:52;;;;;;;;;;;;;;;17.06;100.00;151940.42;1714155;83;20183;-59
2022/05/14 04:07:20;;;;;;;;;;;;;;;17.16;100.00;151966.52;1714342;83;20129;-59
2022/05/14 04:09:48;;;;;;;;;;;;;;;17.30;100.00;152000.39;1684195;83;21258;-59
2022/05/14 04:12:15;;;;;;;;;;;;;;;17.45;100.00;152038.19;1702116;83;20179;-57
2022/05/14 04:14:43;;;;;;;;;;;;;;;17.63;100.00;152083.86;1695814;84;20174;-58
2022/05/14 04:17:10;;;;;;;;;;;;;;;17.82;100.00;152130.81;1695521;84;20456;-58
2022/05/14 04:19:37;;;;;;;;;;;;;;;17.95;100.00;152164.70;1695548;84;20148;-58
2022/05/14 04:22:04;;;;;;;;;;;;;;;18.06;100.00;152190.86;1695653;84;20568;-58
2022/05/14 04:24:32;;;;;;;;;;;;;;;18.18;100.00;152222.14;1695710;84;20455;-58
2022/05/14 04:26:59;;;;;;;;;;;;;;;18.27;100.00;152245.66;1695563;84;20175;-58
2022/05/14 04:29:26;;;;;;;;;;;;;;;18.33;100.00;152261.28;1696258;84;20083;-59
2022/05/14 04:31:53;;;;;;;;;;;;;;;18.41;100.00;152279.53;1695705;84;20194;-59
2022/05/14 04:34:20;;;;;;;;;;;;;;;18.46;100.00;152292.62;1695875;84;21266;-58
2022/05/14 04:36:47;;;;;;;;;;;;;;;18.52;100.00;152308.27;1695312;84;20179;-59
2022/05/14 04:39:14;;;;;;;;;;;;;;;18.60;100.00;152327.84;1695846;84;20155;-58
2022/05/14 04:41:42;;;;;;;;;;;;;;;18.64;100.00;152338.28;1696790;83;20567;-58
2022/05/14 04:44:09;;;;;;;;;;;;;;;18.68;100.00;152347.38;1697259;84;20221;-59
2022/05/14 04:46:37;;;;;;;;;;;;;;;18.69;100.00;152350.03;1728773;83;20855;-58
2022/05/14 04:49:04;;;;;;;;;;;;;;;18.73;100.00;152360.47;1728562;83;20232;-58
2022/05/14 04:51:32;;;;;;;;;;;;;;;18.74;100.00;152364.36;1729653;83;20168;-59
2022/05/14 04:53:59;;;;;;;;;;;;;;;18.76;100.00;152368.30;1728819;83;20237;-58
2022/05/14 04:56:26;;;;;;;;;;;;;;;18.80;100.00;152378.72;1729398;83;20151;-59
2022/05/14 04:58:53;;;;;;;;;;;;;;;18.84;100.00;152389.16;1728617;83;21133;-58
2022/05/14 05:01:20;;;;;;;;;;;;;;;18.86;100.00;152394.38;1729079;83;20212;-59
2022/05/14 05:03:48;;;;;;;;;;;;;;;18.92;100.00;152407.45;1708602;83;20203;-58
2022/05/14 05:06:15;;;;;;;;;;;;;;;18.96;99.50;152417.89;1728833;83;20202;-58
2022/05/14 05:08:42;;;;;;;;;;;;;;;18.99;99.19;152425.77;1728531;81;20158;-58
2022/05/14 05:11:10;;;;;;;;;;;;;;;19.07;99.05;152446.63;1730178;82;21228;-59
2022/05/14 05:13:39;;;;;;;;;;;;;;;19.12;98.18;152459.72;1734313;82;20400;-58
2022/05/14 05:16:06;;;;;;;;;;;;;;;19.18;97.88;152475.38;1733753;81;20227;-59
2022/05/14 05:18:32;;;;;;;;;;;;;;;19.25;96.73;152492.34;1733989;82;20115;-58
2022/05/14 05:20:59;;;;;;;;;;;;;;;19.23;95.51;152485.80;1733424;81;20207;-59
2022/05/14 05:23:26;;;;;;;;;;;;;;;19.22;95.52;152483.19;1734065;82;21789;-59
2022/05/14 05:25:54;;;;;;;;;;;;;;;19.27;95.02;152496.23;1733601;82;20199;-59
2022/05/14 05:28:21;;;;;;;;;;;;;;;19.32;94.54;152510.61;1734032;81;20175;-60
2022/05/14 05:30:48;;;;;;;;;;;;;;;19.41;93.96;152531.48;1733622;82;20772;-60
2022/05/14 05:33:18;;;;;;;;;;;;;;;19.49;93.24;152551.06;1733786;81;20234;-59
2022/05/14 05:35:45;;;;;;;;;;;;;;;19.54;92.99;152564.13;1733294;82;21177;-59
2022/05/14 05:38:11;;;;;;;;;;;;;;;19.66;92.68;152595.47;1733690;82;20198;-59
2022/05/14 05:40:38;;;;;;;;;;;;;;;19.78;91.84;152624.17;1733851;82;20139;-59
2022/05/14 05:43:05;;;;;;;;;;;;;;;19.88;91.82;152650.31;1733643;82;20214;-60
2022/05/14 05:45:33;;;;;;;;;;;;;;;20.06;91.57;152694.78;1733981;82;20405;-59
2022/05/14 05:48:00;;;;;;;;;;;;;;;20.22;90.70;152736.55;1733843;82;20562;-59
2022/05/14 05:50:26;;;;;;;;;;;;;;;20.35;89.83;152769.25;1734066;82;20174;-60
2022/05/14 05:52:54;;;;;;;;;;;;;;;20.52;89.25;152812.34;1733374;82;20209;-59
2022/05/14 05:58:07;;;;;;;;;;;;;;;20.89;87.79;152905.16;1734074;82;20202;-59
2022/05/14 06:00:33;;;;;;;;;;;;;;;21.16;86.67;152973.09;1734913;82;21238;-59
2022/05/14 06:03:01;;;;;;;;;;;;;;;21.37;85.74;153026.72;1734056;82;20451;-60
2022/05/14 06:05:29;;;;;;;;;;;;;;;21.60;84.44;153084.23;1734641;82;20131;-58
2022/05/14 06:07:57;;;;;;;;;;;;;;;21.80;82.89;153135.25;1733875;81;20115;-59
2022/05/14 06:10:24;;;;;;;;;;;;;;;21.96;81.77;153175.78;1734159;82;20095;-58
2022/05/14 06:12:51;;;;;;;;;;;;;;;22.13;80.67;153217.63;1690202;81;21233;-59
2022/05/14 06:15:20;;;;;;;;;;;;;;;22.23;79.86;153243.81;1734045;82;20151;-60
2022/05/14 06:17:47;;;;;;;;;;;;;;;22.29;79.42;153259.50;1734099;82;20150;-58
2022/05/14 06:20:15;;;;;;;;;;;;;;;22.43;79.24;153293.47;1733899;82;21373;-58
2022/05/14 06:22:42;;;;;;;;;;;;;;;22.58;78.43;153331.50;1734457;82;20443;-59
2022/05/14 06:25:09;;;;;;;;;;;;;;;22.63;78.03;153344.56;1733438;82;21136;-60
2022/05/14 06:27:37;;;;;;;;;;;;;;;22.79;78.05;153383.83;1733221;82;20139;-60
2022/05/14 06:30:05;;;;;;;;;;;;;;;23.00;77.25;153437.44;1734035;82;20205;-60
2022/05/14 06:32:32;;;;;;;;;;;;;;;23.19;76.37;153485.84;1734002;82;20392;-60
2022/05/14 06:34:59;;;;;;;;;;;;;;;23.41;75.58;153540.86;1733193;82;20756;-59
2022/05/14 06:37:26;;;;;;;;;;;;;;;23.59;73.67;153586.70;1733707;82;21288;-59
2022/05/14 06:39:52;;;;;;;;;;;;;;;23.71;72.62;153618.09;1733256;82;20162;-60
2022/05/14 06:42:19;;;;;;;;;;;;;;;23.88;71.65;153661.33;1735964;81;20220;-58
2022/05/14 06:44:47;;;;;;;;;;;;;;;24.00;70.76;153690.09;1735835;82;20553;-60
2022/05/14 06:47:14;;;;;;;;;;;;;;;24.11;70.03;153717.64;1736021;82;20345;-60
2022/05/14 06:49:41;;;;;;;;;;;;;;;24.20;69.03;153741.19;1736278;82;21917;-58
2022/05/14 06:52:09;;;;;;;;;;;;;;;24.28;68.69;153762.17;1736261;82;20202;-58
2022/05/14 06:54:37;;;;;;;;;;;;;;;24.41;68.42;153793.56;1737184;82;20147;-59
2022/05/14 06:57:04;;;;;;;;;;;;;;;24.54;67.46;153826.36;1736375;82;20756;-57
2022/05/14 06:59:32;;;;;;;;;;;;;;;24.65;66.41;153855.14;1737019;82;20435;-59
2022/05/14 07:01:59;;;;;;;;;;;;;;;24.75;65.26;153880.09;1736954;81;21082;-59
2022/05/14 07:07:12;;;;;;;;;;;;;;;24.65;64.89;153853.81;1736893;82;20459;-58
2022/05/14 07:09:40;;;;;;;;;;;;;;;24.70;64.87;153866.95;1736595;81;20429;-59
2022/05/14 07:12:10;;;;;;;;;;;;;;;24.76;65.32;153882.70;1735483;82;20300;-59
2022/05/14 07:14:40;;;;;;;;;;;;;;;24.93;65.30;153924.63;1734961;82;21944;-56
2022/05/14 07:17:08;;;;;;;;;;;;;;;25.07;63.42;153959.98;1734328;81;20163;-59
2022/05/14 07:19:36;;;;;;;;;;;;;;;25.00;61.96;153944.28;1734561;81;20392;-59
2022/05/14 07:22:03;;;;;;;;;;;;;;;24.96;61.75;153932.48;1734161;82;20596;-57
2022/05/14 07:24:30;;;;;;;;;;;;;;;25.02;61.30;153948.19;1735149;81;20412;-58
2022/05/14 07:27:00;;;;;;;;;;;;;;;25.00;60.53;153942.95;1734470;82;21222;-58
2022/05/14 07:29:27;;;;;;;;;;;;;;;25.02;59.94;153948.19;1735118;82;20164;-58
2022/05/14 07:31:54;;;;;;;;;;;;;;;25.05;58.80;153956.03;1735025;81;20186;-58
2022/05/14 07:34:21;;;;;;;;;;;;;;;25.02;56.49;153948.19;1734372;82;20224;-58
2022/05/14 07:36:57;;;;;;;;;;;;;;;24.99;55.57;153940.33;1733866;82;20210;-59
2022/05/14 07:39:26;;;;;;;;;;;;;;;25.09;55.21;153966.56;1733717;82;21287;-58
2022/05/14 07:41:55;;;;;;;;;;;;;;;25.23;54.57;154000.59;1737960;82;20537;-58
2022/05/14 07:44:24;;;;;;;;;;;;;;;25.35;53.87;154032.06;1718411;83;20176;-59
2022/05/14 07:46:50;;;;;;;;;;;;;;;25.43;53.73;154051.72;1718786;83;20148;-58
2022/05/14 07:49:17;;;;;;;;;;;;;;;25.46;53.92;154060.86;1718661;83;20496;-58
2022/05/14 07:51:45;;;;;;;;;;;;;;;25.57;54.22;154087.14;1718277;83;21298;-58
2022/05/14 07:54:11;;;;;;;;;;;;;;;25.70;53.39;154119.91;1718158;83;20180;-58
2022/05/14 07:56:39;;;;;;;;;;;;;;;25.70;53.48;154119.91;1718577;83;20097;-58
2022/05/14 07:59:06;;;;;;;;;;;;;;;25.69;53.38;154117.28;1718655;83;20189;-58
2022/05/14 08:01:33;;;;;;;;;;;;;;;25.65;53.61;154108.09;1718774;83;20146;-57
2022/05/14 08:04:00;;;;;;;;;;;;;;;25.57;53.35;154087.14;1699753;83;21319;-59
2022/05/14 08:06:26;;;;;;;;;;;;;;;25.50;52.51;154068.77;1718756;83;20154;-58
2022/05/14 08:08:54;;;;;;;;;;;;;;;25.46;53.07;154059.58;1718804;83;20189;-59
2022/05/14 08:11:21;;;;;;;;;;;;;;;25.44;54.02;154055.62;1729914;81;20438;-59
2022/05/14 08:13:48;;;;;;;;;;;;;;;25.43;54.43;154053.00;1759424;81;20458;-59
2022/05/14 08:16:15;;;;;;;;;;;;;;;25.48;54.12;154063.53;1757380;81;21862;-59
2022/05/14 08:18:41;;;;;;;;;;;;;;;25.42;53.62;154050.39;1759246;81;20485;-59
2022/05/14 08:26:40;;;;;;;;;;;;;;;24.88;54.08;153914.16;1756811;81;35651;-60
2022/05/14 08:29:07;;;;;;;;;;;;;;;24.98;55.11;153937.72;1759237;81;21843;-59
2022/05/14 08:31:34;;;;;;;;;;;;;;;25.18;53.18;153990.13;1757281;81;20415;-60
2022/05/14 08:34:01;;;;;;;;;;;;;;;25.38;51.91;154039.91;1759344;81;20193;-60
2022/05/14 08:36:29;;;;;;;;;;;;;;;25.46;51.76;154060.86;1757409;81;20138;-60
2022/05/14 08:38:55;;;;;;;;;;;;;;;25.49;51.96;154066.14;1759298;81;20177;-58
2022/05/14 08:41:22;;;;;;;;;;;;;;;25.46;51.71;154060.86;1753729;81;21127;-59
2022/05/14 08:43:52;;;;;;;;;;;;;;;25.42;51.13;154050.39;1745023;82;20126;-59
2022/05/14 08:46:21;;;;;;;;;;;;;;;25.48;51.04;154063.53;1745560;82;20451;-59
2022/05/14 08:48:50;;;;;;;;;;;;;;;25.44;51.02;154055.62;1745894;82;20130;-58
2022/05/14 08:51:19;;;;;;;;;;;;;;;25.41;51.59;154047.77;1745637;82;20178;-59
2022/05/14 08:53:47;;;;;;;;;;;;;;;25.25;50.64;154005.83;1745365;81;21917;-59
2022/05/14 08:56:24;;;;;;;;;;;;;;;25.10;51.40;153969.17;1714599;82;20332;-58
2022/05/14 08:59:15;;;;;;;;;;;;;;;24.97;51.98;153935.09;1744813;82;20293;-59
2022/05/14 09:01:42;;;;;;;;;;;;;;;24.94;51.42;153928.53;1727519;82;20419;-60
2022/05/14 09:04:10;;;;;;;;;;;;;;;24.93;50.83;153924.63;1745005;81;20114;-59
2022/05/14 09:06:38;;;;;;;;;;;;;;;24.92;51.06;153922.02;1745195;82;21273;-58
2022/05/14 09:09:07;;;;;;;;;;;;;;;25.00;50.97;153942.95;1745594;82;20430;-58
2022/05/14 09:11:46;;;;;;;;;;;;;;;25.15;51.17;153982.27;1737842;82;20113;-58
2022/05/14 09:14:25;;;;;;;;;;;;;;;25.41;50.89;154047.77;1726033;83;20177;-58
2022/05/14 09:17:04;;;;;;;;;;;;;;;25.70;50.67;154121.19;1726308;83;20120;-60
2022/05/14 09:19:34;;;;;;;;;;;;;;;25.88;50.65;154165.75;1726454;83;21217;-60
2022/05/14 09:22:02;;;;;;;;;;;;;;;25.99;49.97;154193.28;1715428;83;20779;-60
2022/05/14 09:24:30;;;;;;;;;;;;;;;25.96;49.77;154186.70;1691711;83;20141;-59
2022/05/14 09:27:10;;;;;;;;;;;;;;;25.94;50.45;154181.47;1715601;83;20635;-59
2022/05/14 09:29:42;;;;;;;;;;;;;;;25.99;50.26;154194.61;1716316;83;20117;-58
2022/05/14 09:32:20;;;;;;;;;;;;;;;25.95;49.80;154184.09;1716011;83;21751;-57
2022/05/14 09:34:47;;;;;;;;;;;;;;;25.94;50.38;154181.47;1715590;83;20520;-58
2022/05/14 09:37:20;;;;;;;;;;;;;;;25.90;50.72;154171.00;1716132;83;20263;-58
2022/05/14 09:40:02;;;;;;;;;;;;;;;25.79;51.44;154142.19;1716029;83;20750;-59
2022/05/14 09:42:44;;;;;;;;;;;;;;;25.81;52.16;154147.42;1712964;82;20110;-59
2022/05/14 09:45:30;;;;;;;;;;;;;;;25.86;52.73;154160.52;1711217;83;21099;-59
2022/05/14 09:48:10;;;;;;;;;;;;;;;25.79;53.16;154142.19;1710916;83;20325;-59
2022/05/14 09:50:36;;;;;;;;;;;;;;;25.87;52.70;154163.14;1703585;83;20422;-59
2022/05/14 09:53:04;;;;;;;;;;;;;;;25.97;52.19;154189.33;1688580;83;20236;-60
2022/05/14 09:55:51;;;;;;;;;;;;;;;25.93;52.72;154178.84;1711518;83;20209;-58
2022/05/14 09:58:54;;;;;;;;;;;;;;;25.62;53.62;154098.91;1710875;83;21947;-59
2022/05/14 10:01:28;;;;;;;;;;;;;;;25.37;53.26;154035.97;1711403;83;20216;-59
2022/05/14 10:04:05;;;;;;;;;;;;;;;25.12;53.65;153974.41;1711273;83;20213;-59
2022/05/14 10:06:38;;;;;;;;;;;;;;;25.18;54.00;153988.78;1711353;83;20109;-60
2022/05/14 10:09:09;;;;;;;;;;;;;;;25.26;52.26;154008.45;1710337;83;20212;-59
2022/05/14 10:11:40;;;;;;;;;;;;;;;25.32;51.12;154024.20;1690637;83;21250;-58
2022/05/14 10:14:23;;;;;;;;;;;;;;;25.34;50.13;154029.44;1725210;83;20231;-59
2022/05/14 10:17:08;;;;;;;;;;;;;;;25.41;50.48;154046.44;1725265;83;20242;-59
2022/05/14 10:19:45;;;;;;;;;;;;;;;25.51;50.88;154071.37;1725499;82;20116;-59
2022/05/14 10:22:22;;;;;;;;;;;;;;;25.52;50.00;154075.33;1725191;83;20199;-60
2022/05/14 10:28:09;;;;;;;;;;;;;;;25.41;49.01;154046.44;1724519;82;20184;-60
2022/05/14 10:30:49;;;;;;;;;;;;;;;25.48;48.99;154063.53;1724835;83;20145;-59
2022/05/14 10:33:19;;;;;;;;;;;;;;;25.60;48.46;154095.00;1725170;83;20665;-58
2022/05/14 10:35:55;;;;;;;;;;;;;;;25.42;48.13;154049.06;1725271;83;20206;-60
2022/05/14 10:38:28;;;;;;;;;;;;;;;25.32;48.17;154024.20;1725459;83;21242;-58
2022/05/14 10:40:58;;;;;;;;;;;;;;;25.32;46.40;154024.20;1717604;83;20197;-59
2022/05/14 10:43:37;;;;;;;;;;;;;;;25.32;47.04;154024.20;1725161;82;20199;-58
2022/05/14 10:46:07;;;;;;;;;;;;;;;25.36;46.32;154034.67;1724312;82;20499;-58
2022/05/14 10:48:51;;;;;;;;;;;;;;;25.33;45.41;154026.83;1724676;82;20501;-59
2022/05/14 10:51:21;;;;;;;;;;;;;;;25.23;45.98;154000.59;1724662;83;22669;-60
2022/05/14 10:53:47;;;;;;;;;;;;;;;25.18;46.61;153990.13;1724933;83;20139;-61
2022/05/14 10:56:23;;;;;;;;;;;;;;;25.17;46.52;153986.17;1724467;83;20214;-58
2022/05/14 10:59:00;;;;;;;;;;;;;;;25.05;46.52;153954.75;1724226;82;20176;-58
2022/05/14 11:01:49;;;;;;;;;;;;;;;24.96;46.74;153932.48;1723999;83;20471;-58
2022/05/14 11:04:28;;;;;;;;;;;;;;;24.94;46.88;153928.53;1724800;83;21222;-59
2022/05/14 11:07:00;;;;;;;;;;;;;;;24.90;47.90;153918.06;1724791;83;20135;-58
2022/05/14 11:09:47;;;;;;;;;;;;;;;24.66;47.83;153857.77;1724925;83;20115;-58
2022/05/14 11:12:21;;;;;;;;;;;;;;;24.47;47.98;153809.33;1715901;83;20212;-58
2022/05/14 11:14:50;;;;;;;;;;;;;;;24.40;48.86;153790.95;1711266;84;20191;-60
2022/05/14 11:17:32;;;;;;;;;;;;;;;24.33;49.80;153773.97;1711027;84;21237;-58
2022/05/14 11:20:11;;;;;;;;;;;;;;;24.29;50.04;153764.78;1710626;84;20113;-60
2022/05/14 11:22:44;;;;;;;;;;;;;;;24.35;50.46;153777.88;1711038;83;20162;-58
2022/05/14 11:25:20;;;;;;;;;;;;;;;24.37;51.43;153783.11;1710861;83;20184;-58
2022/05/14 11:28:06;;;;;;;;;;;;;;;24.38;51.13;153787.06;1711203;83;20129;-60
2022/05/14 11:30:42;;;;;;;;;;;;;;;24.46;50.12;153806.70;1711345;83;21216;-58
2022/05/14 11:33:28;;;;;;;;;;;;;;;24.51;49.46;153819.78;1710600;84;20213;-58
2022/05/14 11:35:57;;;;;;;;;;;;;;;24.49;46.84;153814.56;1710184;83;20256;-59
2022/05/14 11:38:28;;;;;;;;;;;;;;;24.43;47.46;153798.86;1710398;83;20412;-58
2022/05/14 11:41:01;;;;;;;;;;;;;;;24.46;47.96;153806.70;1710568;84;20253;-58
2022/05/14 11:43:33;;;;;;;;;;;;;;;24.47;47.95;153809.33;1738284;82;21254;-60
2022/05/14 11:46:11;;;;;;;;;;;;;;;24.54;47.40;153827.64;1746783;82;20214;-60
2022/05/14 11:48:46;;;;;;;;;;;;;;;24.61;47.42;153845.95;1747318;82;20455;-59
2022/05/14 11:51:20;;;;;;;;;;;;;;;24.49;47.81;153814.56;1747887;82;20218;-59
2022/05/14 11:53:50;;;;;;;;;;;;;;;24.46;47.61;153806.70;1742846;82;20202;-59
2022/05/14 11:56:23;;;;;;;;;;;;;;;24.53;46.48;153825.03;1748296;82;20672;-60
2022/05/14 11:58:56;;;;;;;;;;;;;;;24.56;46.05;153832.87;1747118;82;20474;-60
2022/05/14 12:01:26;;;;;;;;;;;;;;;24.50;47.34;153817.17;1747470;81;20178;-59
2022/05/14 12:03:53;;;;;;;;;;;;;;;24.35;46.21;153779.20;1747187;82;20395;-58
2022/05/14 12:06:35;;;;;;;;;;;;;;;24.26;46.08;153756.94;1748002;81;20233;-58
2022/05/14 12:09:15;;;;;;;;;;;;;;;24.29;46.65;153763.45;1747593;81;21234;-61
2022/05/14 12:12:05;;;;;;;;;;;;;;;24.29;47.51;153763.45;1756090;81;20109;-59
2022/05/14 12:14:34;;;;;;;;;;;;;;;24.25;46.71;153754.33;1767400;80;20162;-59
2022/05/14 12:17:04;;;;;;;;;;;;;;;24.19;46.24;153738.58;1767558;80;20180;-58
2022/05/14 12:19:36;;;;;;;;;;;;;;;24.15;46.33;153728.11;1767743;80;20188;-59
2022/05/14 12:22:17;;;;;;;;;;;;;;;24.09;47.12;153713.69;1767195;80;21220;-60
2022/05/14 12:24:56;;;;;;;;;;;;;;;24.03;46.42;153699.33;1766970;80;20157;-59
2022/05/14 12:27:22;;;;;;;;;;;;;;;23.97;45.64;153682.25;1767681;81;20120;-60
2022/05/14 12:29:59;;;;;;;;;;;;;;;24.05;45.01;153703.23;1766821;80;20172;-59
2022/05/14 12:35:15;;;;;;;;;;;;;;;24.37;44.35;153783.11;1766865;80;21845;-58
2022/05/14 12:37:42;;;;;;;;;;;;;;;24.48;44.04;153811.94;1753679;80;20122;-58
2022/05/14 12:40:10;;;;;;;;;;;;;;;24.59;43.18;153840.72;1753364;81;20170;-58
2022/05/14 12:42:40;;;;;;;;;;;;;;;24.71;42.58;153869.56;1718860;82;20421;-60
2022/05/14 12:45:07;;;;;;;;;;;;;;;24.81;42.30;153894.50;1733039;82;20179;-58
2022/05/14 12:47:37;;;;;;;;;;;;;;;24.84;42.56;153903.64;1733654;82;21230;-60
2022/05/14 12:50:18;;;;;;;;;;;;;;;24.87;42.19;153910.20;1733320;82;20184;-59
2022/05/14 12:53:00;;;;;;;;;;;;;;;24.90;41.43;153918.06;1706363;82;20120;-63
2022/05/14 12:55:27;;;;;;;;;;;;;;;24.88;39.86;153914.16;1732463;82;20456;-58
2022/05/14 12:57:54;;;;;;;;;;;;;;;24.76;39.43;153882.70;1733419;82;20127;-59
2022/05/14 13:00:22;;;;;;;;;;;;;;;24.63;39.28;153849.91;1733246;82;21237;-59
2022/05/14 13:02:52;;;;;;;;;;;;;;;24.58;39.65;153836.83;1733465;82;20216;-59
2022/05/14 13:05:22;;;;;;;;;;;;;;;24.56;39.93;153832.87;1731310;82;20187;-59
2022/05/14 13:07:54;;;;;;;;;;;;;;;24.54;40.09;153826.36;1732718;82;20706;-60
2022/05/14 13:10:22;;;;;;;;;;;;;;;24.47;40.87;153809.33;1732651;82;20195;-60
2022/05/14 13:13:00;;;;;;;;;;;;;;;24.44;41.17;153801.47;1732844;82;21182;-61